sensor_id;sensor_type;location;lat;lon;timestamp;P1;durP1;ratioP1;P2;durP2;ratioP2
20478;SDS011;10398;52.490;13.434;2023-03-03T00:01:01;18.30;;;7.00;;
20478;SDS011;10398;52.490;13.434;2023-03-03T00:03:26;16.17;;;6.40;;
20478;SDS011;10398;52.490;13.434;2023-03-03T00:05:52;23.00;;;8.03;;
20478;SDS011;10398;52.490;13.434;2023-03-03T00:08:18;16.47;;;6.70;;
20478;SDS011;10398;52.490;13.434;2023-03-03T00:10:45;20.30;;;6.83;;
20478;SDS011;10398;52.490;13.434;2023-03-03T00:13:12;18.37;;;7.40;;
20478;SDS011;10398;52.490;13.434;2023-03-03T00:15:44;16.00;;;6.43;;
20478;SDS011;10398;52.490;13.434;2023-03-03T00:18:16;16.03;;;6.47;;
20478;SDS011;10398;52.490;13.434;2023-03-03T00:20:58;18.70;;;6.53;;
20478;SDS011;10398;52.490;13.434;2023-03-03T00:23:27;20.97;;;7.27;;
20478;SDS011;10398;52.490;13.434;2023-03-03T00:25:56;18.07;;;6.03;;
20478;SDS011;10398;52.490;13.434;2023-03-03T00:28:40;14.13;;;5.90;;
20478;SDS011;10398;52.490;13.434;2023-03-03T00:31:18;16.40;;;6.13;;
20478;SDS011;10398;52.490;13.434;2023-03-03T00:33:47;17.03;;;6.60;;
20478;SDS011;10398;52.490;13.434;2023-03-03T00:39:21;15.10;;;6.03;;
20478;SDS011;10398;52.490;13.434;2023-03-03T00:41:57;15.17;;;5.27;;
20478;SDS011;10398;52.490;13.434;2023-03-03T00:44:37;17.20;;;6.27;;
20478;SDS011;10398;52.490;13.434;2023-03-03T00:49:48;15.90;;;6.33;;
20478;SDS011;10398;52.490;13.434;2023-03-03T00:52:15;16.27;;;6.33;;
20478;SDS011;10398;52.490;13.434;2023-03-03T00:54:42;18.90;;;6.37;;
20478;SDS011;10398;52.490;13.434;2023-03-03T00:57:08;16.90;;;6.17;;
20478;SDS011;10398;52.490;13.434;2023-03-03T00:59:33;16.57;;;6.27;;
20478;SDS011;10398;52.490;13.434;2023-03-03T01:01:59;16.50;;;5.73;;
20478;SDS011;10398;52.490;13.434;2023-03-03T01:04:25;15.03;;;6.10;;
20478;SDS011;10398;52.490;13.434;2023-03-03T01:06:51;17.83;;;5.63;;
20478;SDS011;10398;52.490;13.434;2023-03-03T01:09:16;15.77;;;5.60;;
20478;SDS011;10398;52.490;13.434;2023-03-03T01:11:42;18.80;;;7.03;;
20478;SDS011;10398;52.490;13.434;2023-03-03T01:14:08;16.07;;;6.23;;
20478;SDS011;10398;52.490;13.434;2023-03-03T01:16:33;18.97;;;5.90;;
20478;SDS011;10398;52.490;13.434;2023-03-03T01:18:59;16.43;;;6.10;;
20478;SDS011;10398;52.490;13.434;2023-03-03T01:21:24;18.03;;;6.43;;
20478;SDS011;10398;52.490;13.434;2023-03-03T01:23:50;18.53;;;5.83;;
20478;SDS011;10398;52.490;13.434;2023-03-03T01:26:16;14.20;;;5.97;;
20478;SDS011;10398;52.490;13.434;2023-03-03T01:28:42;14.07;;;6.17;;
20478;SDS011;10398;52.490;13.434;2023-03-03T01:31:07;18.87;;;6.33;;
20478;SDS011;10398;52.490;13.434;2023-03-03T01:33:33;15.47;;;5.87;;
20478;SDS011;10398;52.490;13.434;2023-03-03T01:36:01;15.03;;;5.93;;
20478;SDS011;10398;52.490;13.434;2023-03-03T01:38:28;16.83;;;5.90;;
20478;SDS011;10398;52.490;13.434;2023-03-03T01:40:54;17.60;;;6.67;;
20478;SDS011;10398;52.490;13.434;2023-03-03T01:43:21;18.43;;;6.40;;
20478;SDS011;10398;52.490;13.434;2023-03-03T01:48:13;16.57;;;6.63;;
20478;SDS011;10398;52.490;13.434;2023-03-03T01:50:53;16.90;;;5.80;;
20478;SDS011;10398;52.490;13.434;2023-03-03T01:53:22;13.90;;;5.90;;
20478;SDS011;10398;52.490;13.434;2023-03-03T01:56:06;17.67;;;6.20;;
20478;SDS011;10398;52.490;13.434;2023-03-03T01:58:34;16.73;;;6.27;;
20478;SDS011;10398;52.490;13.434;2023-03-03T02:01:05;16.23;;;6.67;;
20478;SDS011;10398;52.490;13.434;2023-03-03T02:03:35;20.37;;;7.40;;
20478;SDS011;10398;52.490;13.434;2023-03-03T02:06:05;15.10;;;6.67;;
20478;SDS011;10398;52.490;13.434;2023-03-03T02:08:35;21.80;;;7.47;;
20478;SDS011;10398;52.490;13.434;2023-03-03T02:11:06;21.27;;;8.03;;
20478;SDS011;10398;52.490;13.434;2023-03-03T02:13:33;23.53;;;8.20;;
20478;SDS011;10398;52.490;13.434;2023-03-03T02:15:58;26.77;;;8.50;;
20478;SDS011;10398;52.490;13.434;2023-03-03T02:18:24;23.63;;;8.37;;
20478;SDS011;10398;52.490;13.434;2023-03-03T02:26:21;26.23;;;8.90;;
20478;SDS011;10398;52.490;13.434;2023-03-03T02:28:52;25.10;;;8.60;;
20478;SDS011;10398;52.490;13.434;2023-03-03T02:31:19;26.10;;;8.67;;
20478;SDS011;10398;52.490;13.434;2023-03-03T02:33:47;21.17;;;8.30;;
20478;SDS011;10398;52.490;13.434;2023-03-03T02:36:16;23.10;;;9.20;;
20478;SDS011;10398;52.490;13.434;2023-03-03T02:44:02;21.50;;;8.53;;
20478;SDS011;10398;52.490;13.434;2023-03-03T02:46:34;25.17;;;8.60;;
20478;SDS011;10398;52.490;13.434;2023-03-03T02:49:02;22.10;;;8.30;;
20478;SDS011;10398;52.490;13.434;2023-03-03T02:51:29;22.00;;;8.63;;
20478;SDS011;10398;52.490;13.434;2023-03-03T02:53:55;24.57;;;8.43;;
20478;SDS011;10398;52.490;13.434;2023-03-03T02:56:21;26.03;;;9.10;;
20478;SDS011;10398;52.490;13.434;2023-03-03T02:58:47;23.97;;;9.03;;
20478;SDS011;10398;52.490;13.434;2023-03-03T03:01:13;18.03;;;7.73;;
20478;SDS011;10398;52.490;13.434;2023-03-03T03:03:38;24.40;;;9.10;;
20478;SDS011;10398;52.490;13.434;2023-03-03T03:06:04;24.40;;;8.90;;
20478;SDS011;10398;52.490;13.434;2023-03-03T03:08:30;18.80;;;8.40;;
20478;SDS011;10398;52.490;13.434;2023-03-03T03:10:56;21.47;;;7.57;;
20478;SDS011;10398;52.490;13.434;2023-03-03T03:13:22;19.23;;;7.40;;
20478;SDS011;10398;52.490;13.434;2023-03-03T03:15:48;21.13;;;7.37;;
20478;SDS011;10398;52.490;13.434;2023-03-03T03:18:14;22.10;;;7.97;;
20478;SDS011;10398;52.490;13.434;2023-03-03T03:20:40;23.10;;;8.63;;
20478;SDS011;10398;52.490;13.434;2023-03-03T03:23:06;18.37;;;6.93;;
20478;SDS011;10398;52.490;13.434;2023-03-03T03:25:33;22.23;;;7.37;;
20478;SDS011;10398;52.490;13.434;2023-03-03T03:27:59;19.03;;;7.40;;
20478;SDS011;10398;52.490;13.434;2023-03-03T03:30:26;19.40;;;8.43;;
20478;SDS011;10398;52.490;13.434;2023-03-03T03:32:51;23.73;;;8.53;;
20478;SDS011;10398;52.490;13.434;2023-03-03T03:35:17;21.93;;;8.37;;
20478;SDS011;10398;52.490;13.434;2023-03-03T03:37:43;22.73;;;8.57;;
20478;SDS011;10398;52.490;13.434;2023-03-03T03:40:09;19.70;;;7.30;;
20478;SDS011;10398;52.490;13.434;2023-03-03T03:42:35;21.77;;;7.40;;
20478;SDS011;10398;52.490;13.434;2023-03-03T03:45:02;28.83;;;8.60;;
20478;SDS011;10398;52.490;13.434;2023-03-03T03:47:28;24.27;;;7.93;;
20478;SDS011;10398;52.490;13.434;2023-03-03T03:49:54;23.10;;;7.33;;
20478;SDS011;10398;52.490;13.434;2023-03-03T03:52:19;18.07;;;6.70;;
20478;SDS011;10398;52.490;13.434;2023-03-03T03:54:45;17.27;;;7.47;;
20478;SDS011;10398;52.490;13.434;2023-03-03T03:57:11;18.30;;;7.20;;
20478;SDS011;10398;52.490;13.434;2023-03-03T03:59:36;24.37;;;8.30;;
20478;SDS011;10398;52.490;13.434;2023-03-03T04:02:03;19.70;;;7.60;;
20478;SDS011;10398;52.490;13.434;2023-03-03T04:04:28;19.00;;;7.13;;
20478;SDS011;10398;52.490;13.434;2023-03-03T04:06:54;23.43;;;8.10;;
20478;SDS011;10398;52.490;13.434;2023-03-03T04:09:20;20.40;;;7.37;;
20478;SDS011;10398;52.490;13.434;2023-03-03T04:11:45;22.10;;;7.03;;
20478;SDS011;10398;52.490;13.434;2023-03-03T04:14:11;18.07;;;7.13;;
20478;SDS011;10398;52.490;13.434;2023-03-03T04:16:37;17.57;;;6.50;;
20478;SDS011;10398;52.490;13.434;2023-03-03T04:19:02;21.47;;;6.77;;
20478;SDS011;10398;52.490;13.434;2023-03-03T04:21:28;19.93;;;7.33;;
20478;SDS011;10398;52.490;13.434;2023-03-03T04:23:54;20.80;;;7.50;;
20478;SDS011;10398;52.490;13.434;2023-03-03T04:26:19;18.27;;;6.73;;
20478;SDS011;10398;52.490;13.434;2023-03-03T04:28:45;17.23;;;6.57;;
20478;SDS011;10398;52.490;13.434;2023-03-03T04:31:11;20.00;;;7.00;;
20478;SDS011;10398;52.490;13.434;2023-03-03T04:33:37;19.70;;;6.47;;
20478;SDS011;10398;52.490;13.434;2023-03-03T04:36:03;21.00;;;7.37;;
20478;SDS011;10398;52.490;13.434;2023-03-03T04:38:29;17.70;;;6.50;;
20478;SDS011;10398;52.490;13.434;2023-03-03T04:40:55;22.47;;;7.50;;
20478;SDS011;10398;52.490;13.434;2023-03-03T04:43:21;21.20;;;6.77;;
20478;SDS011;10398;52.490;13.434;2023-03-03T04:45:46;20.73;;;7.43;;
20478;SDS011;10398;52.490;13.434;2023-03-03T04:48:12;15.50;;;6.17;;
20478;SDS011;10398;52.490;13.434;2023-03-03T04:50:38;21.43;;;7.70;;
20478;SDS011;10398;52.490;13.434;2023-03-03T04:53:04;19.27;;;6.67;;
20478;SDS011;10398;52.490;13.434;2023-03-03T04:55:29;20.53;;;7.73;;
20478;SDS011;10398;52.490;13.434;2023-03-03T04:57:55;18.93;;;7.53;;
20478;SDS011;10398;52.490;13.434;2023-03-03T05:00:21;21.90;;;8.10;;
20478;SDS011;10398;52.490;13.434;2023-03-03T05:02:46;22.23;;;7.07;;
20478;SDS011;10398;52.490;13.434;2023-03-03T05:05:13;17.17;;;6.63;;
20478;SDS011;10398;52.490;13.434;2023-03-03T05:07:39;17.40;;;6.97;;
20478;SDS011;10398;52.490;13.434;2023-03-03T05:10:05;16.20;;;6.67;;
20478;SDS011;10398;52.490;13.434;2023-03-03T05:12:32;17.43;;;6.83;;
20478;SDS011;10398;52.490;13.434;2023-03-03T05:14:58;16.83;;;7.27;;
20478;SDS011;10398;52.490;13.434;2023-03-03T05:17:23;17.93;;;6.13;;
20478;SDS011;10398;52.490;13.434;2023-03-03T05:19:49;24.00;;;8.17;;
20478;SDS011;10398;52.490;13.434;2023-03-03T05:22:15;16.70;;;7.10;;
20478;SDS011;10398;52.490;13.434;2023-03-03T05:24:40;24.03;;;7.73;;
20478;SDS011;10398;52.490;13.434;2023-03-03T05:27:07;20.50;;;7.87;;
20478;SDS011;10398;52.490;13.434;2023-03-03T05:29:33;22.30;;;8.03;;
20478;SDS011;10398;52.490;13.434;2023-03-03T05:31:59;29.57;;;8.23;;
20478;SDS011;10398;52.490;13.434;2023-03-03T05:34:25;28.33;;;8.37;;
20478;SDS011;10398;52.490;13.434;2023-03-03T05:36:51;26.03;;;8.53;;
20478;SDS011;10398;52.490;13.434;2023-03-03T05:39:17;28.03;;;9.70;;
20478;SDS011;10398;52.490;13.434;2023-03-03T05:41:43;30.90;;;9.03;;
20478;SDS011;10398;52.490;13.434;2023-03-03T05:44:08;27.23;;;9.00;;
20478;SDS011;10398;52.490;13.434;2023-03-03T05:46:34;27.33;;;9.30;;
20478;SDS011;10398;52.490;13.434;2023-03-03T05:49:00;24.33;;;9.43;;
20478;SDS011;10398;52.490;13.434;2023-03-03T05:51:26;24.57;;;10.27;;
20478;SDS011;10398;52.490;13.434;2023-03-03T05:53:51;34.77;;;10.87;;
20478;SDS011;10398;52.490;13.434;2023-03-03T05:56:17;35.30;;;10.50;;
20478;SDS011;10398;52.490;13.434;2023-03-03T05:58:43;31.53;;;10.20;;
20478;SDS011;10398;52.490;13.434;2023-03-03T06:01:08;27.77;;;9.43;;
20478;SDS011;10398;52.490;13.434;2023-03-03T06:03:34;26.53;;;9.63;;
20478;SDS011;10398;52.490;13.434;2023-03-03T06:06:00;28.00;;;9.50;;
20478;SDS011;10398;52.490;13.434;2023-03-03T06:08:25;24.07;;;9.23;;
20478;SDS011;10398;52.490;13.434;2023-03-03T06:10:51;29.67;;;9.80;;
20478;SDS011;10398;52.490;13.434;2023-03-03T06:13:17;28.40;;;9.53;;
20478;SDS011;10398;52.490;13.434;2023-03-03T06:15:43;31.00;;;9.53;;
20478;SDS011;10398;52.490;13.434;2023-03-03T06:18:08;26.97;;;8.83;;
20478;SDS011;10398;52.490;13.434;2023-03-03T06:20:34;25.93;;;8.10;;
20478;SDS011;10398;52.490;13.434;2023-03-03T06:23:00;23.83;;;8.43;;
20478;SDS011;10398;52.490;13.434;2023-03-03T06:25:26;23.73;;;9.07;;
20478;SDS011;10398;52.490;13.434;2023-03-03T06:27:52;30.67;;;8.73;;
20478;SDS011;10398;52.490;13.434;2023-03-03T06:30:17;25.20;;;8.93;;
20478;SDS011;10398;52.490;13.434;2023-03-03T06:32:44;28.10;;;9.50;;
20478;SDS011;10398;52.490;13.434;2023-03-03T06:35:10;22.50;;;8.63;;
20478;SDS011;10398;52.490;13.434;2023-03-03T06:37:36;26.00;;;8.50;;
20478;SDS011;10398;52.490;13.434;2023-03-03T06:40:02;25.07;;;8.17;;
20478;SDS011;10398;52.490;13.434;2023-03-03T06:42:29;24.97;;;8.23;;
20478;SDS011;10398;52.490;13.434;2023-03-03T06:44:55;24.87;;;7.93;;
20478;SDS011;10398;52.490;13.434;2023-03-03T06:47:21;21.83;;;7.70;;
20478;SDS011;10398;52.490;13.434;2023-03-03T06:49:46;21.90;;;7.30;;
20478;SDS011;10398;52.490;13.434;2023-03-03T06:52:22;24.90;;;8.57;;
20478;SDS011;10398;52.490;13.434;2023-03-03T06:54:53;25.00;;;9.17;;
20478;SDS011;10398;52.490;13.434;2023-03-03T06:57:25;22.97;;;8.40;;
20478;SDS011;10398;52.490;13.434;2023-03-03T07:00:17;28.97;;;8.67;;
20478;SDS011;10398;52.490;13.434;2023-03-03T07:03:03;23.53;;;8.23;;
20478;SDS011;10398;52.490;13.434;2023-03-03T07:05:36;33.20;;;8.10;;
20478;SDS011;10398;52.490;13.434;2023-03-03T07:08:04;22.47;;;7.40;;
20478;SDS011;10398;52.490;13.434;2023-03-03T07:10:34;23.57;;;8.00;;
20478;SDS011;10398;52.490;13.434;2023-03-03T07:15:52;32.40;;;9.10;;
20478;SDS011;10398;52.490;13.434;2023-03-03T07:18:22;23.30;;;8.13;;
20478;SDS011;10398;52.490;13.434;2023-03-03T07:21:50;29.40;;;8.67;;
20478;SDS011;10398;52.490;13.434;2023-03-03T07:23:56;28.30;;;8.43;;
20478;SDS011;10398;52.490;13.434;2023-03-03T07:26:26;29.77;;;8.23;;
20478;SDS011;10398;52.490;13.434;2023-03-03T07:28:57;31.90;;;9.83;;
20478;SDS011;10398;52.490;13.434;2023-03-03T07:31:35;31.90;;;9.50;;
20478;SDS011;10398;52.490;13.434;2023-03-03T07:34:09;27.10;;;8.07;;
20478;SDS011;10398;52.490;13.434;2023-03-03T07:36:48;27.93;;;8.80;;
20478;SDS011;10398;52.490;13.434;2023-03-03T07:44:43;26.17;;;8.83;;
20478;SDS011;10398;52.490;13.434;2023-03-03T07:50:19;32.50;;;10.03;;
20478;SDS011;10398;52.490;13.434;2023-03-03T07:53:07;31.17;;;10.70;;
20478;SDS011;10398;52.490;13.434;2023-03-03T07:55:38;37.70;;;9.90;;
20478;SDS011;10398;52.490;13.434;2023-03-03T08:01:21;34.70;;;10.47;;
20478;SDS011;10398;52.490;13.434;2023-03-03T08:03:38;34.80;;;10.77;;
20478;SDS011;10398;52.490;13.434;2023-03-03T08:06:46;29.47;;;9.63;;
20478;SDS011;10398;52.490;13.434;2023-03-03T08:09:24;33.97;;;9.00;;
20478;SDS011;10398;52.490;13.434;2023-03-03T08:14:34;29.50;;;10.60;;
20478;SDS011;10398;52.490;13.434;2023-03-03T08:17:06;38.17;;;10.40;;
20478;SDS011;10398;52.490;13.434;2023-03-03T08:19:48;37.87;;;10.77;;
20478;SDS011;10398;52.490;13.434;2023-03-03T08:22:19;34.87;;;11.00;;
20478;SDS011;10398;52.490;13.434;2023-03-03T08:24:55;33.97;;;9.50;;
20478;SDS011;10398;52.490;13.434;2023-03-03T08:27:20;40.33;;;10.40;;
20478;SDS011;10398;52.490;13.434;2023-03-03T08:29:46;29.53;;;9.13;;
20478;SDS011;10398;52.490;13.434;2023-03-03T08:32:14;34.13;;;10.80;;
20478;SDS011;10398;52.490;13.434;2023-03-03T08:34:40;34.77;;;9.17;;
20478;SDS011;10398;52.490;13.434;2023-03-03T08:37:06;33.27;;;10.17;;
20478;SDS011;10398;52.490;13.434;2023-03-03T08:39:31;28.87;;;9.33;;
20478;SDS011;10398;52.490;13.434;2023-03-03T08:41:57;28.93;;;9.87;;
20478;SDS011;10398;52.490;13.434;2023-03-03T08:44:23;37.37;;;10.87;;
20478;SDS011;10398;52.490;13.434;2023-03-03T08:46:50;31.63;;;8.30;;
20478;SDS011;10398;52.490;13.434;2023-03-03T08:49:16;32.70;;;8.63;;
20478;SDS011;10398;52.490;13.434;2023-03-03T08:51:42;28.30;;;8.07;;
20478;SDS011;10398;52.490;13.434;2023-03-03T08:54:08;25.43;;;7.17;;
20478;SDS011;10398;52.490;13.434;2023-03-03T08:56:33;22.53;;;7.67;;
20478;SDS011;10398;52.490;13.434;2023-03-03T08:58:59;23.70;;;7.80;;
20478;SDS011;10398;52.490;13.434;2023-03-03T09:01:24;29.30;;;8.47;;
20478;SDS011;10398;52.490;13.434;2023-03-03T09:03:50;24.37;;;9.27;;
20478;SDS011;10398;52.490;13.434;2023-03-03T09:06:16;21.60;;;7.13;;
20478;SDS011;10398;52.490;13.434;2023-03-03T09:08:41;24.23;;;7.27;;
20478;SDS011;10398;52.490;13.434;2023-03-03T09:11:14;26.10;;;8.70;;
20478;SDS011;10398;52.490;13.434;2023-03-03T09:13:43;23.40;;;7.30;;
20478;SDS011;10398;52.490;13.434;2023-03-03T09:16:12;17.77;;;6.77;;
20478;SDS011;10398;52.490;13.434;2023-03-03T09:18:40;25.90;;;8.70;;
20478;SDS011;10398;52.490;13.434;2023-03-03T09:24:01;30.07;;;10.67;;
20478;SDS011;10398;52.490;13.434;2023-03-03T09:26:28;31.27;;;10.43;;
20478;SDS011;10398;52.490;13.434;2023-03-03T09:31:42;26.03;;;8.87;;
20478;SDS011;10398;52.490;13.434;2023-03-03T09:34:17;29.13;;;9.03;;
20478;SDS011;10398;52.490;13.434;2023-03-03T09:36:44;22.60;;;9.03;;
20478;SDS011;10398;52.490;13.434;2023-03-03T09:39:17;23.80;;;8.87;;
20478;SDS011;10398;52.490;13.434;2023-03-03T09:41:54;27.90;;;9.03;;
20478;SDS011;10398;52.490;13.434;2023-03-03T09:47:41;24.23;;;8.53;;
20478;SDS011;10398;52.490;13.434;2023-03-03T10:18:07;19.27;;;6.93;;
20478;SDS011;10398;52.490;13.434;2023-03-03T10:21:01;17.60;;;7.00;;
20478;SDS011;10398;52.490;13.434;2023-03-03T10:23:40;15.07;;;5.27;;
20478;SDS011;10398;52.490;13.434;2023-03-03T10:26:25;18.27;;;6.33;;
20478;SDS011;10398;52.490;13.434;2023-03-03T10:34:26;19.90;;;8.17;;
20478;SDS011;10398;52.490;13.434;2023-03-03T10:37:12;20.27;;;6.60;;
20478;SDS011;10398;52.490;13.434;2023-03-03T10:40:33;21.67;;;6.90;;
20478;SDS011;10398;52.490;13.434;2023-03-03T10:49:38;17.50;;;5.47;;
20478;SDS011;10398;52.490;13.434;2023-03-03T11:00:30;19.80;;;7.33;;
20478;SDS011;10398;52.490;13.434;2023-03-03T11:05:56;19.60;;;7.47;;
20478;SDS011;10398;52.490;13.434;2023-03-03T11:08:35;22.33;;;7.43;;
20478;SDS011;10398;52.490;13.434;2023-03-03T11:11:22;18.53;;;7.07;;
20478;SDS011;10398;52.490;13.434;2023-03-03T11:14:16;21.67;;;7.30;;
20478;SDS011;10398;52.490;13.434;2023-03-03T11:22:24;18.70;;;6.97;;
20478;SDS011;10398;52.490;13.434;2023-03-03T11:33:22;27.30;;;10.60;;
20478;SDS011;10398;52.490;13.434;2023-03-03T11:38:53;36.78;;;15.57;;
20478;SDS011;10398;52.490;13.434;2023-03-03T11:44:34;35.03;;;12.87;;
20478;SDS011;10398;52.490;13.434;2023-03-03T11:49:38;27.97;;;11.57;;
20478;SDS011;10398;52.490;13.434;2023-03-03T12:00:15;29.07;;;10.83;;
20478;SDS011;10398;52.490;13.434;2023-03-03T12:02:50;29.20;;;9.57;;
20478;SDS011;10398;52.490;13.434;2023-03-03T12:08:05;26.07;;;10.13;;
20478;SDS011;10398;52.490;13.434;2023-03-03T12:11:24;26.07;;;10.63;;
20478;SDS011;10398;52.490;13.434;2023-03-03T12:13:59;28.87;;;10.93;;
20478;SDS011;10398;52.490;13.434;2023-03-03T12:22:33;23.70;;;9.53;;
20478;SDS011;10398;52.490;13.434;2023-03-03T12:28:10;22.67;;;7.70;;
20478;SDS011;10398;52.490;13.434;2023-03-03T12:39:18;20.97;;;6.00;;
20478;SDS011;10398;52.490;13.434;2023-03-03T12:41:53;44.97;;;10.83;;
20478;SDS011;10398;52.490;13.434;2023-03-03T12:44:39;23.90;;;7.50;;
20478;SDS011;10398;52.490;13.434;2023-03-03T12:49:57;19.60;;;7.70;;
20478;SDS011;10398;52.490;13.434;2023-03-03T13:04:07;28.60;;;8.97;;
20478;SDS011;10398;52.490;13.434;2023-03-03T13:12:42;27.23;;;9.07;;
20478;SDS011;10398;52.490;13.434;2023-03-03T13:15:27;24.30;;;7.77;;
20478;SDS011;10398;52.490;13.434;2023-03-03T13:17:59;24.17;;;7.73;;
20478;SDS011;10398;52.490;13.434;2023-03-03T13:20:42;19.47;;;8.07;;
20478;SDS011;10398;52.490;13.434;2023-03-03T13:26:07;20.47;;;7.43;;
20478;SDS011;10398;52.490;13.434;2023-03-03T13:31:21;19.67;;;6.73;;
20478;SDS011;10398;52.490;13.434;2023-03-03T13:33:55;20.50;;;6.57;;
20478;SDS011;10398;52.490;13.434;2023-03-03T13:36:46;26.33;;;7.37;;
20478;SDS011;10398;52.490;13.434;2023-03-03T13:39:21;18.17;;;6.93;;
20478;SDS011;10398;52.490;13.434;2023-03-03T13:45:27;17.77;;;6.30;;
20478;SDS011;10398;52.490;13.434;2023-03-03T13:48:02;19.23;;;7.10;;
20478;SDS011;10398;52.490;13.434;2023-03-03T13:50:52;20.70;;;7.13;;
20478;SDS011;10398;52.490;13.434;2023-03-03T13:59:16;23.33;;;7.87;;
20478;SDS011;10398;52.490;13.434;2023-03-03T14:02:09;26.43;;;8.43;;
20478;SDS011;10398;52.490;13.434;2023-03-03T14:05:15;25.60;;;7.63;;
20478;SDS011;10398;52.490;13.434;2023-03-03T14:07:51;22.97;;;7.57;;
20478;SDS011;10398;52.490;13.434;2023-03-03T14:10:27;24.73;;;8.47;;
20478;SDS011;10398;52.490;13.434;2023-03-03T14:13:06;25.47;;;8.60;;
20478;SDS011;10398;52.490;13.434;2023-03-03T14:15:47;25.27;;;8.63;;
20478;SDS011;10398;52.490;13.434;2023-03-03T14:19:17;21.97;;;8.90;;
20478;SDS011;10398;52.490;13.434;2023-03-03T14:21:26;29.03;;;9.53;;
20478;SDS011;10398;52.490;13.434;2023-03-03T14:26:29;22.27;;;9.33;;
20478;SDS011;10398;52.490;13.434;2023-03-03T14:31:45;26.03;;;9.43;;
20478;SDS011;10398;52.490;13.434;2023-03-03T14:40:18;18.37;;;7.37;;
20478;SDS011;10398;52.490;13.434;2023-03-03T14:42:55;19.77;;;7.33;;
20478;SDS011;10398;52.490;13.434;2023-03-03T14:50:56;16.27;;;6.57;;
20478;SDS011;10398;52.490;13.434;2023-03-03T14:56:13;22.33;;;7.63;;
20478;SDS011;10398;52.490;13.434;2023-03-03T14:58:39;18.97;;;7.33;;
20478;SDS011;10398;52.490;13.434;2023-03-03T15:06:50;21.37;;;6.80;;
20478;SDS011;10398;52.490;13.434;2023-03-03T15:11:59;18.10;;;7.27;;
20478;SDS011;10398;52.490;13.434;2023-03-03T15:14:36;16.00;;;6.67;;
20478;SDS011;10398;52.490;13.434;2023-03-03T15:22:41;16.00;;;6.33;;
20478;SDS011;10398;52.490;13.434;2023-03-03T15:25:31;22.37;;;6.60;;
20478;SDS011;10398;52.490;13.434;2023-03-03T15:33:41;16.97;;;7.07;;
20478;SDS011;10398;52.490;13.434;2023-03-03T15:41:51;13.47;;;5.60;;
20478;SDS011;10398;52.490;13.434;2023-03-03T15:47:20;15.00;;;6.60;;
20478;SDS011;10398;52.490;13.434;2023-03-03T15:53:31;15.33;;;5.50;;
20478;SDS011;10398;52.490;13.434;2023-03-03T15:56:08;16.60;;;5.60;;
20478;SDS011;10398;52.490;13.434;2023-03-03T16:01:40;18.40;;;6.67;;
20478;SDS011;10398;52.490;13.434;2023-03-03T16:04:12;18.07;;;6.53;;
20478;SDS011;10398;52.490;13.434;2023-03-03T16:20:27;22.83;;;7.53;;
20478;SDS011;10398;52.490;13.434;2023-03-03T16:23:28;25.47;;;9.10;;
20478;SDS011;10398;52.490;13.434;2023-03-03T16:34:55;22.47;;;8.47;;
20478;SDS011;10398;52.490;13.434;2023-03-03T16:37:29;21.03;;;9.23;;
20478;SDS011;10398;52.490;13.434;2023-03-03T16:42:31;22.43;;;8.13;;
20478;SDS011;10398;52.490;13.434;2023-03-03T16:52:30;19.03;;;7.57;;
20478;SDS011;10398;52.490;13.434;2023-03-03T16:55:08;20.10;;;7.27;;
20478;SDS011;10398;52.490;13.434;2023-03-03T17:00:19;29.17;;;8.87;;
20478;SDS011;10398;52.490;13.434;2023-03-03T17:13:35;25.90;;;8.73;;
20478;SDS011;10398;52.490;13.434;2023-03-03T17:27:33;20.63;;;8.27;;
20478;SDS011;10398;52.490;13.434;2023-03-03T17:30:05;19.57;;;7.37;;
20478;SDS011;10398;52.490;13.434;2023-03-03T17:35:50;21.63;;;8.40;;
20478;SDS011;10398;52.490;13.434;2023-03-03T17:42:12;23.17;;;8.53;;
20478;SDS011;10398;52.490;13.434;2023-03-03T17:46:53;23.23;;;8.13;;
20478;SDS011;10398;52.490;13.434;2023-03-03T17:49:35;17.27;;;7.30;;
20478;SDS011;10398;52.490;13.434;2023-03-03T17:52:15;23.13;;;8.47;;
20478;SDS011;10398;52.490;13.434;2023-03-03T17:54:59;19.63;;;7.80;;
20478;SDS011;10398;52.490;13.434;2023-03-03T18:12:06;22.27;;;7.00;;
20478;SDS011;10398;52.490;13.434;2023-03-03T18:14:56;20.67;;;7.73;;
20478;SDS011;10398;52.490;13.434;2023-03-03T18:17:45;22.80;;;7.60;;
20478;SDS011;10398;52.490;13.434;2023-03-03T18:20:29;18.27;;;6.87;;
20478;SDS011;10398;52.490;13.434;2023-03-03T18:25:58;17.77;;;7.37;;
20478;SDS011;10398;52.490;13.434;2023-03-03T18:29:26;22.03;;;7.47;;
20478;SDS011;10398;52.490;13.434;2023-03-03T18:37:02;24.50;;;8.40;;
20478;SDS011;10398;52.490;13.434;2023-03-03T18:42:40;24.40;;;10.00;;
20478;SDS011;10398;52.490;13.434;2023-03-03T18:50:30;18.70;;;6.97;;
20478;SDS011;10398;52.490;13.434;2023-03-03T18:56:30;20.93;;;7.27;;
20478;SDS011;10398;52.490;13.434;2023-03-03T19:00:56;17.43;;;7.07;;
20478;SDS011;10398;52.490;13.434;2023-03-03T19:08:59;19.67;;;7.80;;
20478;SDS011;10398;52.490;13.434;2023-03-03T19:11:31;21.53;;;8.07;;
20478;SDS011;10398;52.490;13.434;2023-03-03T19:16:39;24.10;;;8.50;;
20478;SDS011;10398;52.490;13.434;2023-03-03T19:19:11;20.63;;;7.27;;
20478;SDS011;10398;52.490;13.434;2023-03-03T19:21:39;19.97;;;7.47;;
20478;SDS011;10398;52.490;13.434;2023-03-03T19:27:05;18.90;;;8.00;;
20478;SDS011;10398;52.490;13.434;2023-03-03T19:46:38;20.40;;;8.07;;
20478;SDS011;10398;52.490;13.434;2023-03-03T19:51:51;22.13;;;8.40;;
20478;SDS011;10398;52.490;13.434;2023-03-03T19:57:04;21.40;;;8.63;;
20478;SDS011;10398;52.490;13.434;2023-03-03T20:05:04;17.27;;;7.47;;
20478;SDS011;10398;52.490;13.434;2023-03-03T20:12:58;20.07;;;7.40;;
20478;SDS011;10398;52.490;13.434;2023-03-03T20:15:51;21.00;;;8.00;;
20478;SDS011;10398;52.490;13.434;2023-03-03T20:26:37;24.13;;;8.37;;
20478;SDS011;10398;52.490;13.434;2023-03-03T20:31:53;19.13;;;6.97;;
20478;SDS011;10398;52.490;13.434;2023-03-03T20:37:16;17.27;;;7.03;;
20478;SDS011;10398;52.490;13.434;2023-03-03T20:42:41;20.03;;;6.73;;
20478;SDS011;10398;52.490;13.434;2023-03-03T20:45:29;18.33;;;7.67;;
20478;SDS011;10398;52.490;13.434;2023-03-03T20:50:52;22.20;;;8.07;;
20478;SDS011;10398;52.490;13.434;2023-03-03T21:02:28;20.30;;;6.80;;
20478;SDS011;10398;52.490;13.434;2023-03-03T21:07:53;18.77;;;7.03;;
20478;SDS011;10398;52.490;13.434;2023-03-03T21:10:20;18.70;;;6.87;;
20478;SDS011;10398;52.490;13.434;2023-03-03T21:12:49;15.50;;;6.23;;
20478;SDS011;10398;52.490;13.434;2023-03-03T21:15:26;19.63;;;6.67;;
20478;SDS011;10398;52.490;13.434;2023-03-03T21:17:54;19.27;;;6.80;;
20478;SDS011;10398;52.490;13.434;2023-03-03T21:22:53;19.43;;;6.93;;
20478;SDS011;10398;52.490;13.434;2023-03-03T21:25:53;19.37;;;7.17;;
20478;SDS011;10398;52.490;13.434;2023-03-03T21:33:45;18.00;;;6.80;;
20478;SDS011;10398;52.490;13.434;2023-03-03T21:36:18;22.17;;;7.73;;
20478;SDS011;10398;52.490;13.434;2023-03-03T21:38:52;15.27;;;5.80;;
20478;SDS011;10398;52.490;13.434;2023-03-03T21:41:18;19.37;;;5.87;;
20478;SDS011;10398;52.490;13.434;2023-03-03T21:43:46;20.53;;;6.57;;
20478;SDS011;10398;52.490;13.434;2023-03-03T21:46:20;18.80;;;7.13;;
20478;SDS011;10398;52.490;13.434;2023-03-03T21:48:48;18.63;;;7.07;;